createdAt,value
2018-11-02T00:00:01.560Z,7.09
2018-11-02T00:02:29.227Z,7.27
2018-11-02T00:04:56.813Z,7.38
2018-11-02T00:07:24.424Z,7.47
2018-11-02T00:09:51.880Z,7.61
2018-11-02T00:12:19.405Z,7.77
2018-11-02T00:14:46.934Z,7.94
2018-11-02T00:17:14.511Z,8.13
2018-11-02T00:19:41.920Z,8.22
2018-11-02T00:22:09.678Z,8.30
2018-11-02T00:24:37.106Z,8.35
2018-11-02T00:27:04.713Z,8.38
2018-11-02T00:29:32.690Z,8.46
2018-11-02T00:32:00.378Z,8.56
2018-11-02T00:34:27.997Z,8.61
2018-11-02T00:36:55.484Z,8.63
2018-11-02T00:39:23.145Z,8.62
2018-11-02T00:41:50.931Z,8.66
2018-11-02T00:44:18.439Z,8.69
2018-11-02T00:46:46.096Z,8.70
2018-11-02T00:49:13.516Z,8.75
2018-11-02T00:51:40.996Z,8.79
2018-11-02T00:54:08.650Z,8.86
2018-11-02T00:56:36.080Z,8.89
2018-11-02T00:59:03.502Z,8.88
2018-11-02T01:01:31.042Z,8.89
2018-11-02T01:03:58.565Z,8.89
2018-11-02T01:06:26.040Z,8.92
2018-11-02T01:08:53.650Z,8.90
2018-11-02T01:11:21.158Z,8.89
2018-11-02T01:13:48.610Z,8.92
2018-11-02T01:16:16.058Z,8.93
2018-11-02T01:18:43.652Z,8.95
2018-11-02T01:21:11.234Z,8.95
2018-11-02T01:23:38.658Z,8.94
2018-11-02T01:26:06.430Z,8.93
2018-11-02T01:28:33.998Z,8.88
2018-11-02T01:31:01.582Z,8.80
2018-11-02T01:33:34.775Z,8.70
2018-11-02T01:36:02.254Z,8.53
2018-11-02T01:38:29.747Z,8.43
2018-11-02T01:40:57.421Z,8.39
2018-11-02T01:43:24.944Z,8.37
2018-11-02T01:45:53.081Z,8.37
2018-11-02T01:48:20.926Z,8.37
2018-11-02T01:50:48.485Z,8.42
2018-11-02T01:53:16.093Z,8.46
2018-11-02T01:55:43.553Z,8.48
2018-11-02T01:58:11.133Z,8.48
2018-11-02T02:00:38.613Z,8.44
2018-11-02T02:03:06.279Z,8.46
2018-11-02T02:05:33.714Z,8.41
2018-11-02T02:08:01.685Z,8.32
2018-11-02T02:10:29.286Z,8.20
2018-11-02T02:12:56.838Z,8.11
2018-11-02T02:15:24.317Z,8.07
2018-11-02T02:17:51.949Z,8.12
2018-11-02T02:20:19.507Z,8.21
2018-11-02T02:22:47.079Z,8.30
2018-11-02T02:25:14.499Z,8.42
2018-11-02T02:27:41.917Z,8.51
2018-11-02T02:30:12.374Z,8.63
2018-11-02T02:32:39.940Z,8.71
2018-11-02T02:35:08.339Z,8.75
2018-11-02T02:37:36.532Z,8.80
2018-11-02T02:40:04.914Z,8.83
2018-11-02T02:42:32.576Z,8.82
2018-11-02T02:45:00.062Z,8.72
2018-11-02T02:47:27.545Z,8.57
2018-11-02T02:49:55.146Z,8.38
2018-11-02T02:52:22.646Z,8.20
2018-11-02T02:54:50.149Z,8.33
2018-11-02T02:57:17.766Z,8.23
2018-11-02T02:59:45.281Z,8.16
2018-11-02T03:02:12.829Z,8.10
2018-11-02T03:04:40.374Z,7.96
2018-11-02T03:07:07.931Z,7.82
2018-11-02T03:09:35.714Z,7.79
2018-11-02T03:12:03.207Z,7.77
2018-11-02T03:14:30.662Z,7.67
2018-11-02T03:16:58.287Z,7.50
2018-11-02T03:19:25.697Z,7.43
2018-11-02T03:21:53.159Z,7.32
2018-11-02T03:24:20.746Z,7.27
2018-11-02T03:26:48.322Z,7.14
2018-11-02T03:29:15.883Z,7.27
2018-11-02T03:31:43.454Z,7.12
2018-11-02T03:34:10.910Z,6.96
2018-11-02T03:36:38.692Z,6.82
2018-11-02T03:39:08.092Z,6.74
2018-11-02T03:41:35.637Z,6.63
2018-11-02T03:44:03.174Z,6.66
2018-11-02T03:46:30.596Z,6.78
2018-11-02T03:48:58.083Z,6.97
2018-11-02T03:51:25.566Z,6.94
2018-11-02T03:53:53.074Z,7.05
2018-11-02T03:56:20.604Z,7.07
2018-11-02T03:58:48.119Z,7.01
2018-11-02T04:01:15.597Z,6.96
2018-11-02T04:03:44.244Z,6.82
2018-11-02T04:06:11.708Z,6.85
2018-11-02T04:08:39.201Z,6.80
2018-11-02T04:11:06.661Z,6.91
2018-11-02T04:13:34.366Z,7.16
2018-11-02T04:16:01.862Z,7.19
2018-11-02T04:18:29.554Z,7.18
2018-11-02T04:20:57.140Z,7.05
2018-11-02T04:23:24.650Z,6.96
2018-11-02T04:25:52.114Z,6.93
2018-11-02T04:28:19.694Z,6.92
2018-11-02T04:30:47.395Z,6.91
2018-11-02T04:33:14.670Z,6.89
2018-11-02T04:35:42.203Z,6.81
2018-11-02T04:38:09.665Z,6.80
2018-11-02T04:40:37.148Z,6.84
2018-11-02T04:43:04.700Z,6.97
2018-11-02T04:45:37.884Z,7.04
2018-11-02T04:48:06.359Z,7.09
2018-11-02T04:50:33.839Z,7.12
2018-11-02T04:53:01.639Z,7.23
2018-11-02T04:55:29.077Z,7.25
2018-11-02T04:57:56.553Z,7.29
2018-11-02T05:00:23.951Z,7.26
2018-11-02T05:02:51.371Z,7.18
2018-11-02T05:05:18.783Z,7.13
2018-11-02T05:07:46.424Z,7.02
2018-11-02T05:10:14.003Z,6.84
2018-11-02T05:12:41.459Z,6.69
2018-11-02T05:15:08.953Z,6.59
2018-11-02T05:17:36.465Z,6.51
2018-11-02T05:20:05.524Z,6.41
2018-11-02T05:22:33.061Z,6.32
2018-11-02T05:25:00.537Z,6.24
2018-11-02T05:27:28.005Z,6.13
2018-11-02T05:29:55.513Z,6.02
2018-11-02T05:32:23.221Z,5.95
2018-11-02T05:34:50.658Z,5.90
2018-11-02T05:37:18.143Z,5.95
2018-11-02T05:39:45.634Z,5.92
2018-11-02T05:42:13.165Z,5.85
2018-11-02T05:44:40.617Z,5.80
2018-11-02T05:47:08.147Z,5.77
2018-11-02T05:49:35.632Z,5.83
2018-11-02T05:52:03.149Z,5.85
2018-11-02T05:54:30.699Z,5.76
2018-11-02T05:56:58.127Z,5.70
2018-11-02T05:59:25.629Z,5.70
2018-11-02T06:01:53.228Z,5.70
2018-11-02T06:04:20.719Z,5.69
2018-11-02T06:06:48.173Z,5.70
2018-11-02T06:09:15.710Z,5.63
2018-11-02T06:11:43.252Z,5.58
2018-11-02T06:14:10.808Z,5.54
2018-11-02T06:16:38.443Z,5.51
2018-11-02T06:19:06.030Z,5.53
2018-11-02T06:21:33.569Z,5.59
2018-11-02T06:24:01.155Z,5.77
2018-11-02T06:26:28.577Z,5.89
2018-11-02T06:28:56.052Z,5.89
2018-11-02T06:31:23.630Z,5.74
2018-11-02T06:33:51.098Z,5.64
2018-11-02T06:36:18.567Z,5.65
2018-11-02T06:38:46.113Z,5.85
2018-11-02T06:41:13.745Z,6.03
2018-11-02T06:43:41.165Z,6.03
2018-11-02T06:46:08.812Z,6.03
2018-11-02T06:48:36.514Z,6.00
2018-11-02T06:51:04.115Z,6.07
2018-11-02T06:53:31.556Z,6.06
2018-11-02T06:55:59.090Z,6.02
2018-11-02T06:58:26.556Z,6.01
2018-11-02T07:00:54.138Z,6.02
2018-11-02T07:03:21.640Z,6.19
2018-11-02T07:05:49.090Z,6.43
2018-11-02T07:08:16.658Z,6.82
2018-11-02T07:10:44.390Z,7.15
2018-11-02T07:13:11.824Z,7.34
2018-11-02T07:15:39.488Z,7.42
2018-11-02T07:18:07.033Z,7.54
2018-11-02T07:20:34.517Z,7.88
2018-11-02T07:23:02.167Z,8.47
2018-11-02T07:25:29.738Z,9.54
2018-11-02T07:27:57.192Z,11.59
2018-11-02T07:30:24.711Z,13.73
2018-11-02T07:32:52.237Z,14.95
2018-11-02T07:35:19.736Z,16.64
2018-11-02T07:37:47.594Z,18.25
2018-11-02T07:40:15.060Z,19.56
2018-11-02T07:42:42.470Z,21.09
2018-11-02T07:45:10.342Z,22.17
2018-11-02T07:47:37.914Z,22.60
2018-11-02T07:50:07.677Z,23.04
2018-11-02T07:52:35.150Z,22.79
2018-11-02T07:55:02.701Z,22.23
2018-11-02T07:57:30.113Z,22.91
2018-11-02T07:59:57.610Z,23.86
2018-11-02T08:02:25.105Z,23.81
2018-11-02T08:04:52.611Z,22.59
2018-11-02T08:07:20.229Z,21.02
2018-11-02T08:09:47.709Z,18.81
2018-11-02T08:12:15.201Z,17.15
2018-11-02T08:14:42.775Z,16.62
2018-11-02T08:17:10.285Z,15.97
2018-11-02T08:19:37.823Z,15.30
2018-11-02T08:22:05.562Z,14.57
2018-11-02T08:24:33.101Z,13.99
2018-11-02T08:27:01.359Z,13.62
2018-11-02T08:29:28.841Z,13.17
2018-11-02T08:31:56.442Z,12.78
2018-11-02T08:34:23.855Z,12.54
2018-11-02T08:36:51.386Z,12.40
2018-11-02T08:39:18.896Z,12.36
2018-11-02T08:41:46.521Z,12.48
2018-11-02T08:44:14.172Z,12.75
2018-11-02T08:46:41.621Z,13.35
2018-11-02T08:49:09.049Z,13.80
2018-11-02T08:51:36.561Z,13.65
2018-11-02T08:54:04.038Z,13.22
2018-11-02T08:56:31.525Z,12.92
2018-11-02T08:58:59.089Z,12.97
2018-11-02T09:01:26.557Z,12.88
2018-11-02T09:03:54.063Z,12.76
2018-11-02T09:06:21.548Z,12.65
2018-11-02T09:08:49.265Z,12.50
2018-11-02T09:11:16.726Z,12.38
2018-11-02T09:13:44.186Z,12.22
2018-11-02T09:16:11.735Z,12.16
2018-11-02T09:18:39.398Z,12.02
2018-11-02T09:21:06.950Z,12.00
2018-11-02T09:23:34.526Z,11.88
2018-11-02T09:26:01.977Z,11.82
2018-11-02T09:28:29.480Z,11.89
2018-11-02T09:30:57.045Z,11.94
2018-11-02T09:33:24.582Z,11.97
2018-11-02T09:35:52.089Z,11.92
2018-11-02T09:38:20.189Z,11.91
2018-11-02T09:40:47.809Z,11.93
2018-11-02T09:43:15.309Z,11.96
2018-11-02T09:45:42.888Z,11.97
2018-11-02T09:48:10.403Z,12.03
2018-11-02T09:50:38.021Z,12.23
2018-11-02T09:53:05.597Z,12.43
2018-11-02T09:55:33.155Z,12.51
2018-11-02T09:58:00.630Z,12.44
2018-11-02T10:00:28.189Z,12.37
2018-11-02T10:02:55.737Z,12.44
2018-11-02T10:05:23.292Z,12.48
2018-11-02T10:07:50.785Z,12.54
2018-11-02T10:10:18.389Z,12.67
2018-11-02T10:12:45.965Z,12.71
2018-11-02T10:15:14.770Z,12.71
2018-11-02T10:17:42.472Z,12.73
2018-11-02T10:20:10.713Z,12.70
2018-11-02T10:22:38.234Z,12.66
2018-11-02T10:25:06.613Z,12.65
2018-11-02T10:27:34.823Z,12.69
2018-11-02T10:30:02.709Z,12.65
2018-11-02T10:32:30.321Z,12.60
2018-11-02T10:34:59.224Z,12.68
2018-11-02T10:37:26.974Z,12.77
2018-11-02T10:39:54.585Z,12.87
2018-11-02T10:42:22.285Z,12.87
2018-11-02T10:44:49.928Z,12.89
2018-11-02T10:47:17.810Z,12.96
2018-11-02T10:49:45.302Z,12.98
2018-11-02T10:52:12.901Z,13.04
2018-11-02T10:54:40.552Z,13.01
2018-11-02T10:57:07.996Z,13.07
2018-11-02T10:59:35.567Z,13.04
2018-11-02T11:02:06.228Z,13.10
2018-11-02T11:04:33.779Z,13.06
2018-11-02T11:07:01.264Z,13.01
2018-11-02T11:09:28.764Z,13.00
2018-11-02T11:11:56.863Z,13.03
2018-11-02T11:14:24.354Z,12.99
2018-11-02T11:16:51.902Z,12.94
2018-11-02T11:19:19.486Z,13.06
2018-11-02T11:21:47.138Z,13.05
2018-11-02T11:24:14.656Z,13.02
2018-11-02T11:26:42.227Z,13.02
2018-11-02T11:29:09.764Z,13.05
2018-11-02T11:31:37.683Z,13.08
2018-11-02T11:34:06.727Z,13.09
2018-11-02T11:36:34.174Z,13.12
2018-11-02T11:39:01.751Z,13.19
2018-11-02T11:41:29.478Z,13.26
2018-11-02T11:43:57.006Z,13.23
2018-11-02T11:46:24.561Z,13.22
2018-11-02T11:48:52.205Z,13.31
2018-11-02T11:51:19.593Z,13.28
2018-11-02T11:53:47.240Z,13.27
2018-11-02T11:56:14.833Z,13.34
2018-11-02T11:58:42.277Z,13.39
2018-11-02T12:01:09.939Z,13.39
2018-11-02T12:03:37.476Z,13.44
2018-11-02T12:06:05.402Z,13.30
2018-11-02T12:08:33.012Z,13.15
2018-11-02T12:11:00.647Z,12.97
2018-11-02T12:13:28.132Z,13.03
2018-11-02T12:15:55.668Z,12.92
2018-11-02T12:18:23.423Z,12.89
2018-11-02T12:20:51.167Z,13.05
2018-11-02T12:23:18.855Z,13.16
2018-11-02T12:25:46.338Z,13.28
2018-11-02T12:28:13.950Z,13.39
2018-11-02T12:30:41.466Z,13.45
2018-11-02T12:33:08.959Z,13.50
2018-11-02T12:35:36.400Z,13.48
2018-11-02T12:38:03.894Z,13.47
2018-11-02T12:40:31.493Z,13.52
2018-11-02T12:42:58.938Z,13.66
2018-11-02T12:45:26.456Z,13.67
2018-11-02T12:47:54.087Z,13.77
2018-11-02T12:50:25.545Z,13.80
2018-11-02T12:52:54.235Z,13.79
2018-11-02T12:55:22.321Z,13.78
2018-11-02T12:57:49.968Z,13.82
2018-11-02T13:00:18.867Z,13.80
2018-11-02T13:02:47.149Z,13.84
2018-11-02T13:05:14.671Z,13.90
2018-11-02T13:07:42.237Z,14.04
2018-11-02T13:10:11.876Z,14.06
2018-11-02T13:12:39.628Z,14.10
2018-11-02T13:15:09.330Z,14.17
2018-11-02T13:17:37.021Z,14.20
2018-11-02T13:20:05.020Z,14.24
2018-11-02T13:22:32.626Z,14.23
2018-11-02T13:25:00.119Z,14.21
2018-11-02T13:27:27.607Z,14.19
2018-11-02T13:29:55.374Z,14.16
2018-11-02T13:32:23.299Z,14.12
2018-11-02T13:34:50.820Z,14.07
2018-11-02T13:37:18.450Z,14.11
2018-11-02T13:39:45.881Z,14.14
2018-11-02T13:42:13.354Z,14.14
2018-11-02T13:44:40.980Z,14.19
2018-11-02T13:47:08.466Z,14.44
2018-11-02T13:49:35.953Z,14.73
2018-11-02T13:52:03.470Z,15.03
2018-11-02T13:54:31.005Z,15.09
2018-11-02T13:56:58.496Z,15.01
2018-11-02T13:59:25.964Z,14.82
2018-11-02T14:01:53.480Z,14.67
2018-11-02T14:04:21.143Z,14.43
2018-11-02T14:06:48.616Z,14.22
2018-11-02T14:09:16.122Z,14.02
2018-11-02T14:11:43.669Z,13.86
2018-11-02T14:14:11.291Z,13.77
2018-11-02T14:16:38.876Z,13.69
2018-11-02T14:19:06.595Z,13.68
2018-11-02T14:21:34.126Z,13.63
2018-11-02T14:24:01.771Z,13.69
2018-11-02T14:26:29.693Z,13.62
2018-11-02T14:28:57.272Z,13.54
2018-11-02T14:31:24.830Z,13.51
2018-11-02T14:33:52.291Z,13.48
2018-11-02T14:36:20.146Z,13.49
2018-11-02T14:38:47.651Z,13.60
2018-11-02T14:41:15.266Z,13.71
2018-11-02T14:43:42.712Z,13.82
2018-11-02T14:46:10.281Z,13.92
2018-11-02T14:48:37.842Z,13.97
2018-11-02T14:51:05.705Z,14.00
2018-11-02T14:53:33.272Z,14.03
2018-11-02T14:56:00.798Z,14.02
2018-11-02T14:58:28.443Z,13.99
2018-11-02T15:00:56.177Z,13.95
2018-11-02T15:03:23.875Z,13.81
2018-11-02T15:05:51.489Z,13.63
2018-11-02T15:08:19.254Z,13.51
2018-11-02T15:10:46.737Z,13.42
2018-11-02T15:13:14.454Z,13.32
2018-11-02T15:15:42.008Z,13.23
2018-11-02T15:18:09.533Z,13.16
2018-11-02T15:20:37.102Z,13.07
2018-11-02T15:23:04.897Z,12.96
2018-11-02T15:25:32.406Z,12.83
2018-11-02T15:27:59.865Z,12.68
2018-11-02T15:30:27.374Z,12.56
2018-11-02T15:32:54.953Z,12.44
2018-11-02T15:35:22.524Z,12.33
2018-11-02T15:37:50.301Z,12.23
2018-11-02T15:40:17.848Z,12.17
2018-11-02T15:42:45.348Z,12.14
2018-11-02T15:45:14.281Z,12.08
2018-11-02T15:47:42.329Z,12.05
2018-11-02T15:50:10.175Z,11.99
2018-11-02T15:52:38.497Z,11.97
2018-11-02T15:55:07.210Z,12.00
2018-11-02T15:57:35.030Z,12.02
2018-11-02T16:00:05.882Z,12.05
2018-11-02T16:02:33.582Z,12.06
2018-11-02T16:05:01.047Z,12.01
2018-11-02T16:07:28.812Z,11.95
2018-11-02T16:09:56.516Z,11.88
2018-11-02T16:12:24.034Z,11.81
2018-11-02T16:14:51.546Z,11.76
2018-11-02T16:17:19.160Z,11.73
2018-11-02T16:19:46.719Z,11.72
2018-11-02T16:22:14.304Z,11.68
2018-11-02T16:24:41.824Z,11.70
2018-11-02T16:27:09.317Z,11.70
2018-11-02T16:29:36.832Z,11.70
2018-11-02T16:32:04.715Z,11.71
2018-11-02T16:34:32.278Z,11.73
2018-11-02T16:36:59.874Z,11.73
2018-11-02T16:39:27.413Z,11.75
2018-11-02T16:41:54.928Z,11.74
2018-11-02T16:44:22.541Z,11.74
2018-11-02T16:46:49.898Z,11.74
2018-11-02T16:49:17.427Z,11.75
2018-11-02T16:51:45.006Z,11.78
2018-11-02T16:54:12.550Z,11.80
2018-11-02T16:56:40.319Z,11.82
2018-11-02T16:59:07.923Z,11.80
2018-11-02T17:01:35.557Z,11.77
2018-11-02T17:04:03.185Z,11.74
2018-11-02T17:06:30.734Z,11.71
2018-11-02T17:08:58.485Z,11.71
2018-11-02T17:11:26.024Z,11.74
2018-11-02T17:13:53.482Z,11.74
2018-11-02T17:16:20.994Z,11.74
2018-11-02T17:18:48.537Z,11.74
2018-11-02T17:21:16.370Z,11.75
2018-11-02T17:23:43.926Z,11.73
2018-11-02T17:26:11.624Z,11.71
2018-11-02T17:28:39.240Z,11.72
2018-11-02T17:31:06.717Z,11.75
2018-11-02T17:33:34.507Z,11.76
2018-11-02T17:36:02.130Z,11.75
2018-11-02T17:38:29.615Z,11.70
2018-11-02T17:40:57.340Z,11.68
2018-11-02T17:43:24.954Z,11.69
2018-11-02T17:45:52.618Z,11.64
2018-11-02T17:48:20.230Z,11.61
2018-11-02T17:50:47.919Z,11.61
2018-11-02T17:53:15.470Z,11.61
2018-11-02T17:55:43.065Z,11.55
2018-11-02T17:58:10.782Z,11.51
2018-11-02T18:00:38.442Z,11.50
2018-11-02T18:03:05.906Z,11.45
2018-11-02T18:05:33.476Z,11.37
2018-11-02T18:08:00.967Z,11.25
2018-11-02T18:10:28.543Z,11.15
2018-11-02T18:12:56.194Z,11.03
2018-11-02T18:15:23.715Z,10.90
2018-11-02T18:17:51.210Z,10.70
2018-11-02T18:20:18.849Z,10.55
2018-11-02T18:22:46.454Z,10.54
2018-11-02T18:25:13.986Z,10.41
2018-11-02T18:27:42.251Z,10.29
2018-11-02T18:30:10.817Z,10.13
2018-11-02T18:32:38.469Z,10.01
2018-11-02T18:35:06.654Z,9.84
2018-11-02T18:37:35.148Z,9.69
2018-11-02T18:40:03.104Z,9.59
2018-11-02T18:42:31.153Z,9.53
2018-11-02T18:44:58.628Z,9.44
2018-11-02T18:47:31.859Z,9.34
2018-11-02T18:49:59.503Z,9.26
2018-11-02T18:52:27.100Z,9.20
2018-11-02T18:54:54.659Z,9.22
2018-11-02T18:57:22.288Z,9.18
2018-11-02T18:59:49.874Z,9.16
2018-11-02T19:02:20.470Z,9.17
2018-11-02T19:04:48.022Z,9.12
2018-11-02T19:07:15.523Z,9.03
2018-11-02T19:09:43.354Z,8.98
2018-11-02T19:12:10.879Z,8.93
2018-11-02T19:14:38.423Z,9.02
2018-11-02T19:17:06.171Z,9.13
2018-11-02T19:19:33.827Z,9.26
2018-11-02T19:22:01.410Z,9.39
2018-11-02T19:24:28.952Z,9.50
2018-11-02T19:26:56.547Z,9.58
2018-11-02T19:29:24.222Z,9.65
2018-11-02T19:31:51.772Z,9.68
2018-11-02T19:34:19.405Z,9.68
2018-11-02T19:36:46.763Z,9.66
2018-11-02T19:39:14.284Z,9.61
2018-11-02T19:41:41.884Z,9.57
2018-11-02T19:44:09.529Z,9.55
2018-11-02T19:46:37.033Z,9.47
2018-11-02T19:49:04.985Z,9.38
2018-11-02T19:51:32.472Z,9.39
2018-11-02T19:54:00.023Z,9.35
2018-11-02T19:56:27.550Z,9.34
2018-11-02T19:58:55.074Z,9.39
2018-11-02T20:01:22.665Z,9.47
2018-11-02T20:03:50.466Z,9.58
2018-11-02T20:06:17.993Z,9.64
2018-11-02T20:08:50.529Z,9.68
2018-11-02T20:11:18.042Z,9.73
2018-11-02T20:13:45.601Z,9.79
2018-11-02T20:16:13.187Z,9.78
2018-11-02T20:18:40.741Z,9.74
2018-11-02T20:21:08.630Z,9.69
2018-11-02T20:23:36.197Z,9.64
2018-11-02T20:26:03.793Z,9.63
2018-11-02T20:28:31.309Z,9.66
2018-11-02T20:30:58.825Z,9.66
2018-11-02T20:33:26.361Z,9.67
2018-11-02T20:35:53.797Z,9.72
2018-11-02T20:38:21.253Z,9.69
2018-11-02T20:40:48.722Z,9.68
2018-11-02T20:43:16.192Z,9.66
2018-11-02T20:45:43.789Z,9.64
2018-11-02T20:48:11.266Z,9.68
2018-11-02T20:50:38.721Z,9.69
2018-11-02T20:53:06.208Z,9.74
2018-11-02T20:55:33.700Z,9.77
2018-11-02T20:58:01.238Z,9.73
2018-11-02T21:00:28.743Z,9.68
2018-11-02T21:02:56.260Z,9.61
2018-11-02T21:05:23.801Z,9.47
2018-11-02T21:07:51.865Z,9.38
2018-11-02T21:10:20.205Z,9.33
2018-11-02T21:12:48.057Z,9.28
2018-11-02T21:15:16.979Z,9.23
2018-11-02T21:17:44.736Z,9.20
2018-11-02T21:20:14.012Z,9.18
2018-11-02T21:22:42.137Z,9.15
2018-11-02T21:25:10.682Z,9.09
2018-11-02T21:27:38.649Z,9.01
2018-11-02T21:30:09.205Z,8.92
2018-11-02T21:32:36.826Z,8.87
2018-11-02T21:35:04.736Z,8.79
2018-11-02T21:37:32.426Z,8.68
2018-11-02T21:39:59.918Z,8.67
2018-11-02T21:42:27.413Z,8.69
2018-11-02T21:44:54.886Z,8.63
2018-11-02T21:47:22.346Z,8.61
2018-11-02T21:49:49.929Z,8.46
2018-11-02T21:52:17.519Z,8.35
2018-11-02T21:54:45.285Z,8.25
2018-11-02T21:57:13.331Z,8.10
2018-11-02T21:59:40.885Z,8.00
2018-11-02T22:02:08.392Z,7.94
2018-11-02T22:04:35.878Z,7.93
2018-11-02T22:07:03.450Z,7.98
2018-11-02T22:09:30.882Z,8.08
2018-11-02T22:11:58.487Z,8.18
2018-11-02T22:14:26.092Z,8.33
2018-11-02T22:16:54.038Z,8.45
2018-11-02T22:19:21.722Z,8.56
2018-11-02T22:21:49.362Z,8.63
2018-11-02T22:24:17.039Z,8.71
2018-11-02T22:26:44.600Z,8.88
2018-11-02T22:29:12.086Z,8.98
2018-11-02T22:31:39.550Z,9.08
2018-11-02T22:34:07.051Z,9.11
2018-11-02T22:36:34.578Z,9.13
2018-11-02T22:39:02.306Z,9.19
2018-11-02T22:41:29.704Z,9.23
2018-11-02T22:43:57.177Z,9.37
2018-11-02T22:46:24.658Z,9.58
2018-11-02T22:48:52.080Z,9.53
2018-11-02T22:51:19.540Z,9.50
2018-11-02T22:53:47.036Z,9.50
2018-11-02T22:56:14.561Z,9.44
2018-11-02T22:58:42.022Z,9.43
2018-11-02T23:01:15.374Z,9.54
2018-11-02T23:03:43.021Z,9.51
2018-11-02T23:06:10.463Z,9.45
2018-11-02T23:08:37.967Z,9.46
2018-11-02T23:11:05.707Z,9.50
2018-11-02T23:13:33.172Z,9.54
2018-11-02T23:16:00.576Z,9.58
2018-11-02T23:18:28.168Z,9.59
2018-11-02T23:20:55.643Z,9.61
2018-11-02T23:23:23.254Z,9.63
2018-11-02T23:25:50.723Z,9.67
2018-11-02T23:28:18.222Z,9.70
2018-11-02T23:30:45.768Z,9.69
2018-11-02T23:33:13.318Z,9.72
2018-11-02T23:35:40.808Z,9.73
2018-11-02T23:38:08.366Z,9.77
2018-11-02T23:40:36.021Z,9.75
2018-11-02T23:43:03.520Z,9.73
2018-11-02T23:45:30.957Z,9.71
2018-11-02T23:48:04.101Z,9.70
2018-11-02T23:50:31.521Z,9.73
2018-11-02T23:52:59.073Z,9.73
2018-11-02T23:55:26.640Z,9.74
2018-11-02T23:57:54.418Z,9.73
